Time;durP1;ratioP1;P1;durP2;ratioP2;P2;SDS_P1;SDS_P2;PMS_P1;PMS_P2;Temp;Humidity;BMP_temperature;BMP_pressure;BME280_temperature;BME280_humidity;BME280_pressure;Samples;Min_cycle;Max_cycle;Signal;HPM_P1;HPM_P2
2022/09/13 07:13:42;;;;;;;17.52;4.47;;;;;;;15.21;100.00;98551.91;5082235;28;20375;-80
2022/09/13 07:16:11;;;;;;;9.10;3.15;;;;;;;15.46;100.00;98531.75;5081715;28;20071;-80
2022/09/13 07:18:38;;;;;;;13.05;3.30;;;;;;;15.84;100.00;98553.38;5078788;28;20506;-81
2022/09/13 07:21:06;;;;;;;9.82;3.83;;;;;;;16.04;99.98;98553.03;5067758;28;20060;-80
2022/09/13 07:23:34;;;;;;;7.30;3.08;;;;;;;16.45;98.56;98553.22;5067442;28;20057;-79
2022/09/13 07:26:03;;;;;;;3.92;2.67;;;;;;;16.68;96.73;98555.13;5067741;28;20180;-80
2022/09/13 07:28:34;;;;;;;11.40;3.65;;;;;;;16.80;95.66;98546.88;5067481;28;20052;-79
2022/09/13 07:31:13;;;;;;;7.13;2.78;;;;;;;16.97;93.77;98563.47;5084917;28;20055;-80
2022/09/13 07:33:43;;;;;;;9.53;2.50;;;;;;;17.22;87.81;98570.59;5087085;28;20044;-79
2022/09/13 07:36:10;;;;;;;4.53;3.17;;;;;;;17.58;86.95;98563.88;5087543;28;20056;-80
2022/09/13 07:38:39;;;;;;;9.90;2.85;;;;;;;17.78;84.55;98568.97;5088120;28;20492;-79
2022/09/13 07:41:09;;;;;;;17.83;2.45;;;;;;;18.01;82.26;98568.00;5086525;28;20118;-79
2022/09/13 07:43:36;;;;;;;13.68;2.67;;;;;;;18.20;82.09;98554.03;5086128;28;20101;-80
2022/09/13 07:46:05;;;;;;;11.23;2.60;;;;;;;18.37;82.00;98557.63;5086590;28;20059;-80
2022/09/13 07:48:35;;;;;;;7.22;2.20;;;;;;;18.45;77.20;98559.09;5084385;28;20105;-80
2022/09/13 07:51:03;;;;;;;4.65;1.55;;;;;;;18.45;76.27;98541.78;5087559;28;20452;-80
2022/09/13 07:53:30;;;;;;;6.55;1.70;;;;;;;18.57;76.30;98553.50;5086870;28;20071;-80
2022/09/13 07:56:01;;;;;;;10.60;2.30;;;;;;;18.65;76.65;98544.84;5081263;28;20040;-80
2022/09/13 07:58:28;;;;;;;18.83;1.98;;;;;;;18.67;75.73;98548.16;5079542;28;20056;-80
2022/09/13 08:00:54;;;;;;;4.57;1.85;;;;;;;18.71;73.86;98546.59;5083079;28;20052;-80
2022/09/13 08:03:21;;;;;;;7.68;1.70;;;;;;;18.95;74.03;98562.06;5080396;28;20383;-80
2022/09/13 08:05:49;;;;;;;14.02;3.00;;;;;;;18.96;72.75;98563.75;5087184;28;20110;-80
2022/09/13 08:08:15;;;;;;;7.82;1.90;;;;;;;18.91;72.33;98551.56;5087228;28;20048;-80
2022/09/13 08:10:43;;;;;;;5.82;2.42;;;;;;;19.17;71.63;98559.34;5083771;28;20056;-78
2022/09/13 08:13:09;;;;;;;7.10;1.80;;;;;;;19.27;71.20;98560.31;5086070;28;20063;-80
2022/09/13 08:15:36;;;;;;;3.30;2.00;;;;;;;19.51;71.23;98553.66;5086144;28;20044;-80
2022/09/13 08:18:02;;;;;;;5.32;2.10;;;;;;;19.51;69.55;98551.75;5087149;28;20052;-81
2022/09/13 08:20:29;;;;;;;12.70;2.95;;;;;;;19.63;70.31;98555.19;5079252;28;20082;-80
2022/09/13 08:22:57;;;;;;;17.55;2.88;;;;;;;19.77;68.62;98563.06;5076418;28;20052;-81
2022/09/13 08:25:23;;;;;;;13.60;2.47;;;;;;;19.91;70.17;98544.19;5071352;28;20105;-81
2022/09/13 08:27:50;;;;;;;8.32;2.53;;;;;;;20.11;67.90;98555.44;5072440;28;20093;-81
2022/09/13 08:30:16;;;;;;;3.92;2.35;;;;;;;20.07;67.38;98543.25;5073667;28;20048;-81
2022/09/13 08:32:43;;;;;;;5.80;3.00;;;;;;;20.12;65.98;98540.53;5072574;28;20048;-81
2022/09/13 08:35:09;;;;;;;11.27;1.95;;;;;;;20.41;65.37;98536.63;5073273;28;20044;-81
2022/09/13 08:37:36;;;;;;;7.43;2.20;;;;;;;20.47;64.36;98535.56;5063878;28;20496;-81
2022/09/13 08:40:04;;;;;;;4.07;2.08;;;;;;;20.62;65.84;98529.31;5065836;28;20052;-81
2022/09/13 08:42:46;;;;;;;2.63;1.30;;;;;;;20.67;62.04;98523.84;5072272;28;20056;-81
2022/09/13 08:45:13;;;;;;;2.83;1.40;;;;;;;20.87;61.51;98542.47;5059711;28;20514;-81
2022/09/13 08:47:43;;;;;;;5.00;1.40;;;;;;;21.01;60.15;98542.81;5052931;28;20460;-81
2022/09/13 08:50:19;;;;;;;;;;;;;;;21.11;59.46;98547.59;5053871;28;20053;-81
2022/09/13 08:53:03;;;;;;;3.67;1.67;;;;;;;21.20;61.61;98551.50;5053280;28;19921;-81
2022/09/13 08:55:44;;;;;;;3.95;1.50;;;;;;;21.27;59.02;98551.22;5067267;28;20094;-81
2022/09/13 08:58:29;;;;;;;2.17;1.58;;;;;;;21.40;58.10;98540.50;5062496;28;20048;-81
2022/09/13 09:01:05;;;;;;;5.65;1.63;;;;;;;21.57;59.14;98539.47;5052990;28;20053;-81
2022/09/13 09:03:42;;;;;;;4.13;1.20;;;;;;;21.64;58.46;98537.28;5051824;28;20049;-81
2022/09/13 09:06:13;;;;;;;7.10;1.70;;;;;;;21.62;58.65;98533.13;5064620;28;20135;-81
2022/09/13 09:08:47;;;;;;;5.03;1.35;;;;;;;21.59;58.18;98542.81;5066185;28;20047;-81
2022/09/13 09:11:27;;;;;;;1.83;1.15;;;;;;;21.57;58.71;98547.78;5070923;28;20083;-81
2022/09/13 09:14:01;;;;;;;2.13;1.10;;;;;;;21.55;56.78;98536.16;5071619;28;20052;-81
2022/09/13 09:16:34;;;;;;;2.97;1.05;;;;;;;21.61;57.16;98535.06;5053921;28;20098;-81
2022/09/13 09:19:13;;;;;;;4.45;1.67;;;;;;;21.59;57.75;98540.06;5052531;28;20492;-81
2022/09/13 09:21:41;;;;;;;3.60;1.52;;;;;;;21.73;58.37;98537.59;5052042;28;20049;-81
2022/09/13 09:24:16;;;;;;;4.30;1.38;;;;;;;21.74;59.17;98519.91;5071576;28;20412;-81
2022/09/13 09:26:44;;;;;;;3.15;1.50;;;;;;;21.73;57.39;98537.59;5069331;28;20514;-81
2022/09/13 09:29:19;;;;;;;3.10;1.10;;;;;;;22.07;57.65;98529.59;5071975;28;20135;-81
2022/09/13 09:31:58;;;;;;;9.45;1.40;;;;;;;22.19;56.80;98529.34;5065014;28;20048;-83
2022/09/13 09:34:41;;;;;;;2.20;1.10;;;;;;;22.24;55.46;98532.09;5071325;28;20040;-81
2022/09/13 09:37:14;;;;;;;2.78;1.20;;;;;;;22.09;55.82;98513.53;5066391;28;20075;-81
2022/09/13 09:39:41;;;;;;;3.30;1.20;;;;;;;22.22;54.93;98519.63;5060342;28;20393;-81
2022/09/13 09:42:13;;;;;;;3.50;1.23;;;;;;;22.18;55.74;98524.91;5070964;28;20045;-81
2022/09/13 09:44:43;;;;;;;2.90;1.20;;;;;;;22.23;55.53;98529.59;5072384;28;20139;-81
2022/09/13 09:47:14;;;;;;;1.23;1.10;;;;;;;22.30;54.12;98526.56;5072024;28;20056;-81
2022/09/13 09:52:35;;;;;;;1.17;1.08;;;;;;;22.30;54.83;98518.28;5069952;28;20060;-81
2022/09/13 09:55:14;;;;;;;2.88;1.00;;;;;;;22.33;53.63;98509.44;5059307;28;20143;-81
2022/09/13 09:57:53;;;;;;;3.60;1.10;;;;;;;22.52;55.08;98501.38;5062744;28;20143;-81
2022/09/13 10:00:22;;;;;;;1.90;1.17;;;;;;;22.80;53.12;98505.47;5071395;28;20045;-82
2022/09/13 10:02:52;;;;;;;1.73;0.90;;;;;;;22.91;52.02;98509.88;5071123;28;20044;-81
2022/09/13 10:05:19;;;;;;;;;;;;;;;23.05;52.02;98509.25;5068506;28;20049;-81
2022/09/13 10:07:54;;;;;;;1.48;1.00;;;;;;;23.09;50.95;98510.34;5051591;28;19945;-81
2022/09/13 10:10:24;;;;;;;3.10;1.30;;;;;;;23.36;48.98;98525.81;5055185;28;20142;-81
2022/09/13 10:12:53;;;;;;;;;;;;;;;23.52;50.19;98529.34;5069563;28;20106;-82
2022/09/13 10:15:22;;;;;;;7.05;1.20;;;;;;;23.76;50.04;98526.69;5071252;28;19950;-82
2022/09/13 10:18:13;;;;;;;3.78;1.00;;;;;;;23.90;48.16;98524.13;5071465;28;20578;-82
2022/09/13 10:20:40;;;;;;;4.00;1.10;;;;;;;23.92;47.90;98533.84;5070492;28;20086;-82
2022/09/13 10:23:20;;;;;;;2.63;0.93;;;;;;;24.13;47.01;98525.34;5066228;28;20090;-82
2022/09/13 10:26:01;;;;;;;3.67;1.45;;;;;;;24.15;45.92;98517.56;5067603;28;20048;-82
2022/09/13 10:28:30;;;;;;;1.48;1.00;;;;;;;23.96;47.84;98515.47;5070808;28;20047;-82
2022/09/13 10:31:00;;;;;;;4.95;1.80;;;;;;;24.27;47.66;98519.94;5070259;28;20465;-83
2022/09/13 10:33:29;;;;;;;;;;;;;;;24.42;46.74;98505.09;5070556;28;20450;-81
2022/09/13 10:36:00;;;;;;;4.90;1.10;;;;;;;24.63;46.22;98500.19;5069468;28;19920;-80
2022/09/13 10:38:31;;;;;;;3.50;1.10;;;;;;;24.48;45.42;98501.16;5045719;28;20060;-81
2022/09/13 10:41:01;;;;;;;2.88;1.20;;;;;;;24.51;45.34;98503.34;5050956;28;20385;-81
2022/09/13 10:43:31;;;;;;;4.45;1.42;;;;;;;24.46;44.64;98498.66;5049179;28;20051;-81
2022/09/13 10:45:59;;;;;;;1.27;0.88;;;;;;;24.56;44.98;98493.00;5062978;28;20048;-81
2022/09/13 10:48:29;;;;;;;1.58;1.20;;;;;;;24.48;44.37;98502.00;5069152;28;20487;-81
2022/09/13 10:51:05;;;;;;;2.20;0.95;;;;;;;24.57;44.05;98507.75;5061812;28;20044;-81
2022/09/13 10:53:35;;;;;;;1.00;0.90;;;;;;;24.72;42.13;98498.44;5069636;28;20053;-81
2022/09/13 10:56:02;;;;;;;1.85;1.00;;;;;;;24.79;43.17;98496.13;5058099;28;20110;-81
2022/09/13 10:58:30;;;;;;;4.65;0.80;;;;;;;24.96;42.93;98492.06;5066863;28;20052;-84
2022/09/13 11:01:32;;;;;;;1.75;1.00;;;;;;;24.90;42.51;98496.84;5070854;28;20519;-82
2022/09/13 11:04:39;;;;;;;1.75;1.00;;;;;;;24.95;44.18;98499.56;5070177;28;20136;-82
2022/09/13 11:07:23;;;;;;;1.33;1.00;;;;;;;25.01;43.84;98492.81;5068947;28;20468;-82
2022/09/13 11:09:58;;;;;;;2.30;1.13;;;;;;;25.38;43.69;98494.06;5068915;28;20903;-82
2022/09/13 11:12:34;;;;;;;2.65;1.08;;;;;;;25.52;43.02;98485.81;5066778;28;20052;-82
2022/09/13 11:15:14;;;;;;;2.83;1.20;;;;;;;25.44;42.50;98481.75;5063068;28;20396;-82
2022/09/13 11:18:10;;;;;;;2.25;1.10;;;;;;;25.20;43.16;98489.25;5070473;28;20071;-82
2022/09/13 11:20:47;;;;;;;6.80;1.20;;;;;;;25.14;43.58;98484.88;5059662;28;20049;-82
2022/09/13 11:23:55;;;;;;;3.28;1.30;;;;;;;25.21;44.23;98499.25;5049946;28;20053;-82
2022/09/13 11:26:44;;;;;;;2.80;1.08;;;;;;;25.12;43.91;98495.50;5061752;28;20049;-82
2022/09/13 11:29:23;;;;;;;1.58;1.23;;;;;;;25.00;44.24;98502.28;5063339;28;20384;-82
2022/09/13 11:32:02;;;;;;;2.88;1.10;;;;;;;25.12;44.54;98496.31;5068972;28;20047;-82
2022/09/13 11:37:55;;;;;;;7.90;1.27;;;;;;;24.95;44.83;98509.88;5051824;28;20051;-81
2022/09/13 11:40:34;;;;;;;1.02;0.80;;;;;;;25.16;44.93;98516.03;5070737;28;20051;-80
2022/09/13 11:43:24;;;;;;;7.18;1.00;;;;;;;25.19;44.40;98518.22;5064430;28;20056;-83
2022/09/13 11:46:01;;;;;;;4.45;1.10;;;;;;;25.39;44.28;98517.13;5065804;28;20483;-81
2022/09/13 11:48:45;;;;;;;4.68;1.33;;;;;;;25.60;43.86;98515.72;5052731;28;20488;-82
2022/09/13 11:51:24;;;;;;;2.00;0.85;;;;;;;25.88;42.00;98504.75;5050121;28;20053;-82
2022/09/13 11:54:16;;;;;;;2.30;1.17;;;;;;;25.96;42.18;98495.69;5049129;28;20048;-81
2022/09/13 11:56:46;;;;;;;4.80;1.20;;;;;;;25.92;42.46;98477.94;5058290;28;20487;-82
2022/09/13 11:59:22;;;;;;;1.70;1.20;;;;;;;26.11;41.28;98491.06;5071687;28;20052;-82
2022/09/13 12:01:55;;;;;;;1.27;1.10;;;;;;;26.16;41.38;98490.16;5067969;28;20064;-82
2022/09/13 12:04:27;;;;;;;4.80;1.33;;;;;;;26.17;41.92;98480.66;5073201;28;20052;-82
2022/09/13 12:06:58;;;;;;;3.58;1.10;;;;;;;26.43;40.54;98465.13;5073922;28;20048;-82
2022/09/13 12:09:29;;;;;;;3.88;1.08;;;;;;;26.48;40.73;98459.47;5071959;28;20052;-82
2022/09/13 12:12:03;;;;;;;3.05;1.20;;;;;;;26.42;39.75;98466.28;5066652;28;20136;-82
2022/09/13 12:14:35;;;;;;;1.10;0.90;;;;;;;26.66;40.20;98460.56;5073314;28;20053;-82
2022/09/13 12:17:07;;;;;;;1.50;0.77;;;;;;;26.74;39.81;98470.16;5072306;28;20056;-82
2022/09/13 12:19:43;;;;;;;1.90;0.95;;;;;;;26.71;39.26;98459.63;5073513;28;20272;-83
2022/09/13 12:22:11;;;;;;;1.20;0.90;;;;;;;26.33;39.52;98462.53;5072814;28;20546;-83
2022/09/13 12:24:42;;;;;;;2.20;1.23;;;;;;;26.50;40.11;98448.03;5069728;28;20045;-83
2022/09/13 12:27:13;;;;;;;2.72;1.25;;;;;;;26.55;39.32;98461.03;5073973;28;20541;-82
2022/09/13 12:29:46;;;;;;;1.45;1.02;;;;;;;26.65;37.89;98455.28;5073534;28;20132;-83
2022/09/13 12:32:14;;;;;;;4.88;1.05;;;;;;;26.85;37.34;98446.50;5072134;28;20048;-83
2022/09/13 12:34:47;;;;;;;1.35;1.00;;;;;;;27.03;37.56;98443.94;5063895;28;20488;-82
2022/09/13 12:37:30;;;;;;;2.38;1.10;;;;;;;26.92;36.86;98425.75;5071402;28;20055;-81
2022/09/13 12:40:14;;;;;;;2.95;1.25;;;;;;;26.86;37.39;98436.19;5072088;28;20049;-82
2022/09/13 12:43:10;;;;;;;4.18;0.82;;;;;;;26.98;38.10;98410.59;5070640;28;20123;-82
2022/09/13 12:46:00;;;;;;;2.25;1.20;;;;;;;27.00;38.14;98423.06;5073127;28;20110;-82
2022/09/13 12:48:42;;;;;;;2.38;1.00;;;;;;;26.56;38.26;98415.31;5073064;28;20045;-82
2022/09/13 12:51:24;;;;;;;10.75;1.25;;;;;;;26.70;39.94;98420.91;5066902;28;20131;-82
2022/09/13 12:54:28;;;;;;;1.85;1.00;;;;;;;27.09;38.29;98414.78;5072320;28;20139;-82
2022/09/13 12:57:11;;;;;;;2.17;1.10;;;;;;;27.28;36.85;98403.50;5046256;28;20063;-82
2022/09/13 12:59:51;;;;;;;3.10;1.30;;;;;;;27.20;36.44;98410.66;5052754;28;20072;-82
2022/09/13 13:02:34;;;;;;;4.57;1.17;;;;;;;27.67;36.29;98393.69;5052342;28;20052;-82
2022/09/13 13:05:04;;;;;;;3.03;0.60;;;;;;;27.92;34.54;98401.72;5052719;28;20049;-82
2022/09/13 13:07:42;;;;;;;0.98;0.70;;;;;;;28.06;33.82;98399.69;5067478;28;20135;-82
2022/09/13 13:10:43;;;;;;;1.65;0.60;;;;;;;28.24;33.50;98384.69;5072526;28;20052;-83
2022/09/13 13:13:16;;;;;;;0.90;0.55;;;;;;;27.60;32.94;98390.50;5051757;28;20060;-82
2022/09/13 13:16:07;;;;;;;1.60;0.70;;;;;;;27.62;33.78;98390.19;5052377;28;20352;-82
2022/09/13 13:18:56;;;;;;;4.95;1.23;;;;;;;27.61;34.02;98383.78;5061721;28;20147;-82
2022/09/13 13:21:32;;;;;;;16.48;0.82;;;;;;;27.70;33.40;98373.50;5067940;28;20109;-83
2022/09/13 13:24:40;;;;;;;9.38;1.58;;;;;;;27.81;34.31;98376.03;5059693;28;20114;-83
2022/09/13 13:27:50;;;;;;;8.30;0.80;;;;;;;27.83;34.48;98368.97;5064468;28;20360;-82
2022/09/13 13:30:56;;;;;;;5.35;1.08;;;;;;;27.69;33.87;98369.03;5052423;28;20091;-83
2022/09/13 13:33:54;;;;;;;7.25;1.05;;;;;;;27.47;33.85;98349.50;5051906;28;20056;-82
2022/09/13 13:36:22;;;;;;;2.67;0.90;;;;;;;27.50;33.85;98354.44;5071275;28;20052;-82
2022/09/13 13:39:10;;;;;;;5.18;0.60;;;;;;;27.33;33.76;98355.16;5071802;28;20107;-82
2022/09/13 13:42:06;;;;;;;2.47;0.60;;;;;;;27.30;33.82;98361.31;5069383;28;20056;-82
2022/09/13 13:45:15;;;;;;;2.88;0.60;;;;;;;27.15;34.21;98349.38;5069964;28;20056;-82
2022/09/13 13:48:23;;;;;;;1.08;0.52;;;;;;;27.37;33.21;98347.81;5065914;28;20059;-82
2022/09/13 13:51:37;;;;;;;3.10;0.40;;;;;;;27.72;32.36;98342.47;5069272;28;20076;-82
2022/09/13 13:54:56;;;;;;;0.98;0.70;;;;;;;28.04;32.06;98329.38;5071369;28;20049;-82
2022/09/13 13:57:29;;;;;;;2.60;0.65;;;;;;;28.27;31.26;98332.09;5067259;28;20412;-82
2022/09/13 14:00:12;;;;;;;2.50;0.60;;;;;;;28.51;30.94;98348.47;5071182;28;20518;-82
2022/09/13 14:02:46;;;;;;;4.38;0.70;;;;;;;28.22;31.49;98335.88;5058058;28;20055;-82
2022/09/13 14:05:23;;;;;;;0.93;0.70;;;;;;;28.15;31.46;98327.94;5071415;28;20054;-82
2022/09/13 14:08:36;;;;;;;0.63;0.60;;;;;;;28.30;31.29;98337.84;5071553;28;20483;-82
2022/09/13 14:11:19;;;;;;;1.50;0.65;;;;;;;28.53;32.48;98310.66;5033565;28;20107;-83
2022/09/13 14:13:58;;;;;;;0.95;0.50;;;;;;;28.78;30.67;98320.28;5068931;28;20048;-82
2022/09/13 14:16:52;;;;;;;6.65;0.63;;;;;;;29.05;30.96;98312.72;5068011;28;20451;-82
2022/09/13 14:19:30;;;;;;;0.82;0.60;;;;;;;28.95;30.06;98304.66;5065996;28;20384;-82
2022/09/13 14:22:34;;;;;;;0.77;0.47;;;;;;;28.80;29.71;98308.78;5070716;28;20055;-82
2022/09/13 14:25:16;;;;;;;2.13;0.60;;;;;;;28.27;30.34;98312.53;5020575;28;20048;-81
2022/09/13 14:27:45;;;;;;;0.45;0.43;;;;;;;28.20;30.70;98313.00;5072321;28;20056;-81
2022/09/13 14:33:07;;;;;;;2.65;0.43;;;;;;;28.04;30.72;98309.81;5061279;28;20056;-83
2022/09/13 14:35:37;;;;;;;0.90;0.43;;;;;;;28.12;31.42;98299.81;5071251;28;20048;-82
2022/09/13 14:38:18;;;;;;;0.50;0.50;;;;;;;28.14;31.37;98292.78;5070936;28;20075;-83
2022/09/13 14:40:52;;;;;;;6.65;0.70;;;;;;;28.15;31.34;98300.00;5070957;28;20119;-83
2022/09/13 14:43:28;;;;;;;1.92;0.50;;;;;;;28.17;31.24;98288.50;5070216;28;20048;-83
2022/09/13 14:46:07;;;;;;;2.22;0.70;;;;;;;28.38;31.25;98311.94;5070930;28;20135;-83
2022/09/13 14:48:49;;;;;;;1.08;0.60;;;;;;;28.48;30.87;98298.78;5059225;28;20159;-82
2022/09/13 14:51:25;;;;;;;2.28;0.40;;;;;;;28.43;30.77;98283.00;5070958;28;20114;-83
2022/09/13 14:54:15;;;;;;;4.38;0.68;;;;;;;28.13;30.27;98287.50;5070240;28;20053;-83
2022/09/13 14:56:50;;;;;;;2.63;0.50;;;;;;;28.13;31.05;98288.31;5071041;28;20472;-82
2022/09/13 14:59:28;;;;;;;4.03;0.55;;;;;;;28.34;31.21;98291.34;5070411;28;20055;-83
2022/09/13 15:02:09;;;;;;;2.88;0.50;;;;;;;28.43;30.37;98294.19;5070904;28;20048;-82
2022/09/13 15:05:10;;;;;;;;;;;;;;;;;;;;;
2022/09/13 15:08:10;;;;;;;2.90;0.43;;;;;;;28.51;30.67;98286.97;5070811;28;20048;-83
2022/09/13 15:10:51;;;;;;;0.20;0.20;;;;;;;28.78;29.13;98277.50;5070258;28;20102;-83
2022/09/13 15:13:30;;;;;;;3.97;0.52;;;;;;;28.73;29.97;98260.91;5067905;28;20127;-83
2022/09/13 15:16:00;;;;;;;2.75;0.77;;;;;;;28.73;30.22;98250.53;5070153;28;20045;-83
2022/09/13 15:18:41;;;;;;;1.40;0.40;;;;;;;28.75;29.42;98269.78;5067435;28;20063;-83
2022/09/13 15:21:36;;;;;;;3.00;0.60;;;;;;;28.57;29.94;98261.31;5070298;28;20139;-83
2022/09/13 15:24:03;;;;;;;2.88;0.70;;;;;;;28.39;30.19;98252.09;5071534;28;20051;-83
2022/09/13 15:26:30;;;;;;;3.45;0.80;;;;;;;28.30;30.90;98256.81;5069098;28;20049;-82
2022/09/13 15:29:02;;;;;;;1.17;0.65;;;;;;;28.18;31.51;98240.69;5062427;28;20048;-83
2022/09/13 15:31:40;;;;;;;0.70;0.38;;;;;;;27.98;32.04;98260.81;5070602;28;20057;-83
2022/09/13 15:34:27;;;;;;;3.65;0.40;;;;;;;27.69;31.83;98229.44;5069888;28;20706;-83
2022/09/13 15:37:14;;;;;;;1.20;0.45;;;;;;;27.71;32.43;98240.28;5068489;28;20155;-82
2022/09/13 15:40:02;;;;;;;1.20;0.50;;;;;;;27.41;34.11;98223.22;5074362;28;20403;-83
2022/09/13 15:42:40;;;;;;;4.00;0.57;;;;;;;27.36;33.80;98221.38;5068531;28;20436;-83
2022/09/13 15:45:16;;;;;;;2.13;1.27;;;;;;;27.30;33.50;98224.59;5067490;28;20044;-83
2022/09/13 15:47:51;;;;;;;4.05;0.47;;;;;;;27.02;34.29;98208.84;5073994;28;20052;-83
2022/09/13 15:50:25;;;;;;;0.90;0.60;;;;;;;27.00;34.76;98224.22;5074177;28;20444;-83
2022/09/13 15:52:56;;;;;;;4.05;0.43;;;;;;;27.01;35.35;98214.72;5069755;28;20047;-83
2022/09/13 15:55:29;;;;;;;1.75;0.60;;;;;;;26.93;36.39;98207.09;5070757;28;20044;-83
2022/09/13 15:58:21;;;;;;;4.38;0.40;;;;;;;26.78;36.77;98198.00;5064590;28;20048;-82
2022/09/13 16:00:48;;;;;;;2.80;0.60;;;;;;;26.76;37.39;98203.03;5066017;28;20067;-83
2022/09/13 16:03:18;;;;;;;4.82;0.60;;;;;;;26.64;37.71;98208.31;5073070;28;20515;-80
2022/09/13 16:05:45;;;;;;;3.20;0.50;;;;;;;26.57;37.70;98210.72;5073786;28;20562;-80
2022/09/13 16:08:13;;;;;;;1.75;0.40;;;;;;;26.51;37.72;98201.63;5070098;28;20057;-80
2022/09/13 16:10:39;;;;;;;1.33;0.80;;;;;;;26.50;38.12;98200.00;5051993;28;20443;-81
2022/09/13 16:13:06;;;;;;;0.75;0.60;;;;;;;26.36;39.74;98191.69;5063774;28;20403;-80
2022/09/13 16:15:33;;;;;;;1.52;0.45;;;;;;;26.20;39.43;98179.22;5069872;28;20080;-80
2022/09/13 16:17:59;;;;;;;1.92;0.63;;;;;;;26.07;40.39;98181.69;5073106;28;20048;-80
2022/09/13 16:20:26;;;;;;;3.65;0.50;;;;;;;26.03;40.41;98180.69;5073374;28;20052;-80
2022/09/13 16:22:53;;;;;;;3.63;0.65;;;;;;;26.03;41.16;98179.84;5063364;28;20044;-80
2022/09/13 16:25:21;;;;;;;2.47;0.60;;;;;;;25.89;40.93;98177.03;5058929;28;20059;-80
2022/09/13 16:27:47;;;;;;;0.65;0.50;;;;;;;25.71;41.25;98168.47;5070517;28;20060;-80
2022/09/13 16:30:16;;;;;;;1.60;0.73;;;;;;;25.73;42.53;98180.16;5071920;28;20136;-80
2022/09/13 16:32:44;;;;;;;1.55;0.60;;;;;;;25.56;42.79;98169.63;5069465;28;20127;-80
2022/09/13 16:35:12;;;;;;;2.63;0.65;;;;;;;25.50;41.56;98165.28;5070538;28;20140;-80
2022/09/13 16:37:41;;;;;;;2.78;0.70;;;;;;;25.60;41.26;98173.44;5070030;28;20059;-80
2022/09/13 16:40:11;;;;;;;0.93;0.70;;;;;;;25.39;42.35;98164.66;5063202;28;20040;-82
2022/09/13 16:42:45;;;;;;;1.38;0.57;;;;;;;25.33;43.06;98170.63;5070414;28;20045;-80
2022/09/13 16:45:12;;;;;;;0.73;0.43;;;;;;;25.10;43.13;98170.44;5069587;28;20059;-81
2022/09/13 16:47:44;;;;;;;1.95;0.50;;;;;;;24.99;42.73;98160.63;5070452;28;20450;-80
2022/09/13 16:50:13;;;;;;;1.00;0.52;;;;;;;24.97;42.59;98157.31;5069878;28;20060;-82
2022/09/13 16:52:46;;;;;;;4.20;0.50;;;;;;;24.98;42.45;98162.59;5068221;28;20499;-81
2022/09/13 16:55:12;;;;;;;2.63;0.80;;;;;;;25.00;46.51;98174.22;5064338;28;20047;-82
2022/09/13 16:58:02;;;;;;;1.55;0.60;;;;;;;24.80;49.00;98150.38;5059513;28;20118;-82
2022/09/13 17:00:51;;;;;;;3.03;0.52;;;;;;;24.61;50.00;98161.50;5069966;28;20685;-81
